createdAt,value
2018-02-20T00:00:55.072Z,101436.24
2018-02-20T00:01:58.411Z,101425.84
2018-02-20T00:04:11.371Z,101428.19
2018-02-20T00:05:14.760Z,101422.95
2018-02-20T00:06:18.306Z,101422.59
2018-02-20T00:07:21.692Z,101423.08
2018-02-20T00:08:25.009Z,101420.98
2018-02-20T00:09:28.334Z,101423.22
2018-02-20T00:10:31.715Z,101423.34
2018-02-20T00:11:35.026Z,101424.68
2018-02-20T00:12:38.370Z,101419.91
2018-02-20T00:13:41.715Z,101417.34
2018-02-20T00:14:45.038Z,101407.70
2018-02-20T00:15:48.372Z,101405.94
2018-02-20T00:16:51.781Z,101409.91
2018-02-20T00:17:55.144Z,101412.56
2018-02-20T00:18:58.498Z,101414.36
2018-02-20T00:20:01.841Z,101415.73
2018-02-20T00:21:05.158Z,101416.71
2018-02-20T00:22:08.469Z,101417.23
2018-02-20T00:23:11.814Z,101420.77
2018-02-20T00:24:15.165Z,101413.43
2018-02-20T00:25:18.486Z,101409.11
2018-02-20T00:26:22.328Z,101410.95
2018-02-20T00:27:25.686Z,101411.00
2018-02-20T00:28:29.066Z,101408.48
2018-02-20T00:29:32.418Z,101410.29
2018-02-20T00:30:35.794Z,101407.31
2018-02-20T00:31:39.109Z,101413.52
2018-02-20T00:32:42.446Z,101412.75
2018-02-20T00:33:45.801Z,101411.92
2018-02-20T00:34:49.133Z,101411.12
2018-02-20T00:35:52.569Z,101409.38
2018-02-20T00:36:55.946Z,101414.72
2018-02-20T00:37:59.867Z,101414.78
2018-02-20T00:39:03.218Z,101410.86
2018-02-20T00:40:06.578Z,101407.41
2018-02-20T00:41:09.965Z,101405.23
2018-02-20T00:42:13.277Z,101399.15
2018-02-20T00:43:16.655Z,101396.14
2018-02-20T00:44:20.009Z,101399.23
2018-02-20T00:45:23.407Z,101397.58
2018-02-20T00:46:26.721Z,101384.95
2018-02-20T00:47:30.099Z,101392.92
2018-02-20T00:48:33.425Z,101391.63
2018-02-20T00:49:36.773Z,101393.03
2018-02-20T00:50:40.101Z,101395.26
2018-02-20T00:51:43.420Z,101396.60
2018-02-20T00:52:46.748Z,101397.52
2018-02-20T00:53:50.090Z,101394.97
2018-02-20T00:54:53.444Z,101391.48
2018-02-20T00:55:56.795Z,101392.40
2018-02-20T00:57:00.106Z,101395.11
2018-02-20T00:58:03.518Z,101400.85
2018-02-20T00:59:06.823Z,101395.59
2018-02-20T01:00:10.174Z,101397.00
2018-02-20T01:01:13.561Z,101401.39
2018-02-20T01:02:16.894Z,101392.25
2018-02-20T01:03:20.381Z,101399.27
2018-02-20T01:04:23.785Z,101394.02
2018-02-20T01:05:27.159Z,101392.70
2018-02-20T01:06:30.529Z,101397.13
2018-02-20T01:07:33.885Z,101397.59
2018-02-20T01:08:37.372Z,101391.96
2018-02-20T01:09:40.702Z,101390.70
2018-02-20T01:10:44.078Z,101392.48
2018-02-20T01:11:47.421Z,101390.33
2018-02-20T01:12:50.744Z,101391.67
2018-02-20T01:13:54.088Z,101396.07
2018-02-20T01:14:57.417Z,101396.58
2018-02-20T01:16:00.803Z,101397.92
2018-02-20T01:17:04.153Z,101397.06
2018-02-20T01:18:07.516Z,101405.89
2018-02-20T01:19:10.837Z,101408.11
2018-02-20T01:20:14.152Z,101404.62
2018-02-20T01:21:17.569Z,101404.23
2018-02-20T01:22:20.894Z,101407.31
2018-02-20T01:23:24.229Z,101406.08
2018-02-20T01:24:27.629Z,101408.73
2018-02-20T01:25:31.082Z,101411.81
2018-02-20T01:26:34.423Z,101415.81
2018-02-20T01:27:37.743Z,101408.39
2018-02-20T01:28:41.164Z,101413.23
2018-02-20T01:29:44.478Z,101414.15
2018-02-20T01:30:47.864Z,101419.92
2018-02-20T01:31:51.193Z,101414.23
2018-02-20T01:32:54.511Z,101417.80
2018-02-20T01:33:57.872Z,101419.19
2018-02-20T01:35:01.218Z,101413.97
2018-02-20T01:36:04.588Z,101417.05
2018-02-20T01:37:07.938Z,101415.82
2018-02-20T01:38:11.261Z,101413.65
2018-02-20T01:39:14.581Z,101417.61
2018-02-20T01:40:17.889Z,101415.04
2018-02-20T01:41:21.222Z,101418.16
2018-02-20T01:42:24.817Z,101414.67
2018-02-20T01:43:28.177Z,101417.75
2018-02-20T01:44:31.511Z,101418.23
2018-02-20T01:45:34.929Z,101414.34
2018-02-20T01:46:38.285Z,101411.72
2018-02-20T01:47:41.640Z,101413.92
2018-02-20T01:48:45.004Z,101419.63
2018-02-20T01:49:48.331Z,101413.09
2018-02-20T01:51:03.485Z,101414.85
2018-02-20T01:52:06.835Z,101411.95
2018-02-20T01:53:10.228Z,101415.95
2018-02-20T01:54:13.568Z,101410.27
2018-02-20T01:55:16.909Z,101408.98
2018-02-20T01:56:20.443Z,101412.06
2018-02-20T01:57:23.804Z,101416.00
2018-02-20T01:58:27.142Z,101409.04
2018-02-20T01:59:30.456Z,101414.29
2018-02-20T02:00:33.839Z,101406.47
2018-02-20T02:01:37.205Z,101406.50
2018-02-20T02:02:40.560Z,101407.41
2018-02-20T02:03:43.932Z,101413.97
2018-02-20T02:04:47.249Z,101408.74
2018-02-20T02:05:50.573Z,101406.12
2018-02-20T02:06:53.980Z,101407.06
2018-02-20T02:07:57.312Z,101411.45
2018-02-20T02:09:00.698Z,101409.28
2018-02-20T02:10:04.121Z,101410.59
2018-02-20T02:11:07.421Z,101404.94
2018-02-20T02:12:10.809Z,101408.45
2018-02-20T02:13:14.299Z,101415.44
2018-02-20T02:14:17.685Z,101410.70
2018-02-20T02:15:21.020Z,101412.47
2018-02-20T02:16:25.308Z,101402.87
2018-02-20T02:17:28.614Z,101405.53
2018-02-20T02:18:31.940Z,101407.67
2018-02-20T02:19:35.328Z,101409.89
2018-02-20T02:20:38.661Z,101405.59
2018-02-20T02:21:41.997Z,101405.16
2018-02-20T02:22:45.339Z,101404.30
2018-02-20T02:23:48.721Z,101398.64
2018-02-20T02:24:52.083Z,101398.19
2018-02-20T02:25:55.408Z,101402.15
2018-02-20T02:26:58.762Z,101401.72
2018-02-20T02:28:02.094Z,101404.43
2018-02-20T02:29:05.531Z,101405.74
2018-02-20T02:30:08.913Z,101408.39
2018-02-20T02:31:12.757Z,101404.11
2018-02-20T02:32:16.084Z,101410.27
2018-02-20T02:33:19.411Z,101404.20
2018-02-20T02:34:22.771Z,101411.70
2018-02-20T02:35:26.132Z,101415.23
2018-02-20T02:36:29.475Z,101418.34
2018-02-20T02:37:32.794Z,101415.38
2018-02-20T02:38:36.137Z,101415.39
2018-02-20T02:39:39.448Z,101419.36
2018-02-20T02:40:42.855Z,101418.53
2018-02-20T02:41:46.176Z,101415.95
2018-02-20T02:42:49.507Z,101419.03
2018-02-20T02:43:52.886Z,101424.36
2018-02-20T02:44:56.245Z,101422.22
2018-02-20T02:45:59.645Z,101429.68
2018-02-20T02:47:03.077Z,101427.06
2018-02-20T02:48:06.474Z,101424.49
2018-02-20T02:49:09.864Z,101424.97
2018-02-20T02:50:13.163Z,101423.23
2018-02-20T02:51:16.543Z,101424.13
2018-02-20T02:52:19.875Z,101427.25
2018-02-20T02:53:23.186Z,101424.63
2018-02-20T02:54:26.546Z,101426.76
2018-02-20T02:55:29.894Z,101425.95
2018-02-20T02:56:33.285Z,101430.27
2018-02-20T02:57:36.657Z,101424.22
2018-02-20T02:58:40.080Z,101425.98
2018-02-20T02:59:43.399Z,101427.75
2018-02-20T03:00:46.752Z,101427.75
2018-02-20T03:01:50.101Z,101427.77
2018-02-20T03:02:53.515Z,101432.19
2018-02-20T03:03:56.903Z,101429.08
2018-02-20T03:05:00.235Z,101433.90
2018-02-20T03:06:03.556Z,101432.21
2018-02-20T03:07:06.947Z,101430.47
2018-02-20T03:08:10.291Z,101440.56
2018-02-20T03:09:13.612Z,101437.53
2018-02-20T03:10:16.984Z,101440.23
2018-02-20T03:11:20.357Z,101440.28
2018-02-20T03:12:23.996Z,101437.28
2018-02-20T03:13:27.293Z,101442.58
2018-02-20T03:14:30.619Z,101439.98
2018-02-20T03:15:33.985Z,101444.83
2018-02-20T03:16:37.379Z,101443.56
2018-02-20T03:17:40.726Z,101440.94
2018-02-20T03:18:44.083Z,101438.34
2018-02-20T03:19:47.532Z,101437.11
2018-02-20T03:20:50.857Z,101431.45
2018-02-20T03:21:54.177Z,101434.55
2018-02-20T03:22:57.525Z,101438.92
2018-02-20T03:24:00.893Z,101437.69
2018-02-20T03:25:04.302Z,101433.37
2018-02-20T03:26:08.077Z,101432.94
2018-02-20T03:27:11.405Z,101429.97
2018-02-20T03:28:14.853Z,101429.13
2018-02-20T03:29:18.189Z,101428.70
2018-02-20T03:30:21.561Z,101428.33
2018-02-20T03:31:24.905Z,101431.83
2018-02-20T03:32:28.242Z,101426.61
2018-02-20T03:33:31.607Z,101425.77
2018-02-20T03:34:34.942Z,101429.70
2018-02-20T03:35:39.160Z,101423.66
2018-02-20T03:36:42.513Z,101430.27
2018-02-20T03:37:45.856Z,101421.97
2018-02-20T03:38:49.272Z,101419.85
2018-02-20T03:39:52.658Z,101419.02
2018-02-20T03:40:56.009Z,101427.41
2018-02-20T03:41:59.376Z,101424.39
2018-02-20T03:43:02.690Z,101420.93
2018-02-20T03:44:06.046Z,101428.42
2018-02-20T03:45:09.381Z,101431.50
2018-02-20T03:46:12.719Z,101433.70
2018-02-20T03:47:16.126Z,101430.68
2018-02-20T03:48:19.441Z,101440.77
2018-02-20T03:49:22.854Z,101431.99
2018-02-20T03:50:26.191Z,101442.11
2018-02-20T03:51:29.515Z,101439.05
2018-02-20T03:52:32.853Z,101439.03
2018-02-20T03:53:36.258Z,101438.20
2018-02-20T03:54:39.646Z,101445.16
2018-02-20T03:55:42.959Z,101445.16
2018-02-20T03:56:46.284Z,101456.95
2018-02-20T03:57:49.652Z,101450.34
2018-02-20T03:58:52.981Z,101454.28
2018-02-20T03:59:56.403Z,101448.64
2018-02-20T04:00:59.719Z,101447.70
2018-02-20T04:02:03.072Z,101456.00
2018-02-20T04:03:06.402Z,101449.84
2018-02-20T04:04:09.787Z,101455.07
2018-02-20T04:05:13.112Z,101458.95
2018-02-20T04:06:16.532Z,101462.05
2018-02-20T04:07:19.909Z,101462.88
2018-02-20T04:08:23.301Z,101464.17
2018-02-20T04:09:26.632Z,101462.45
2018-02-20T04:10:30.034Z,101466.38
2018-02-20T04:11:33.386Z,101460.31
2018-02-20T04:12:36.722Z,101461.63
2018-02-20T04:13:40.156Z,101462.09
2018-02-20T04:14:43.529Z,101463.86
2018-02-20T04:15:46.905Z,101462.58
2018-02-20T04:16:50.260Z,101460.45
2018-02-20T04:17:53.623Z,101458.33
2018-02-20T04:18:56.940Z,101466.70
2018-02-20T04:20:00.449Z,101459.77
2018-02-20T04:21:03.947Z,101455.91
2018-02-20T04:22:07.265Z,101460.82
2018-02-20T04:23:10.594Z,101463.92
2018-02-20T04:24:13.923Z,101460.91
2018-02-20T04:25:17.369Z,101469.71
2018-02-20T04:26:20.702Z,101464.51
2018-02-20T04:27:24.028Z,101462.39
2018-02-20T04:28:27.470Z,101466.34
2018-02-20T04:29:30.833Z,101462.89
2018-02-20T04:30:34.149Z,101464.70
2018-02-20T04:31:37.546Z,101459.94
2018-02-20T04:32:40.860Z,101463.44
2018-02-20T04:33:44.167Z,101463.53
2018-02-20T04:34:47.526Z,101462.24
2018-02-20T04:35:50.856Z,101464.03
2018-02-20T04:36:54.220Z,101469.33
2018-02-20T04:37:57.531Z,101462.36
2018-02-20T04:39:00.884Z,101467.63
2018-02-20T04:40:04.278Z,101470.27
2018-02-20T04:41:07.634Z,101472.96
2018-02-20T04:42:11.022Z,101466.86
2018-02-20T04:43:14.453Z,101468.20
2018-02-20T04:44:18.195Z,101469.58
2018-02-20T04:45:21.637Z,101465.67
2018-02-20T04:46:25.833Z,101466.14
2018-02-20T04:47:29.245Z,101469.22
2018-02-20T04:48:32.608Z,101467.95
2018-02-20T04:49:35.983Z,101466.66
2018-02-20T04:50:39.305Z,101465.38
2018-02-20T04:51:42.659Z,101461.04
2018-02-20T04:52:46.044Z,101454.11
2018-02-20T04:53:49.436Z,101455.44
2018-02-20T04:54:52.778Z,101458.52
2018-02-20T04:55:56.094Z,101458.11
2018-02-20T04:56:59.460Z,101459.90
2018-02-20T04:58:02.912Z,101458.18
2018-02-20T04:59:06.294Z,101459.06
2018-02-20T05:00:10.145Z,101456.48
2018-02-20T05:01:13.461Z,101460.41
2018-02-20T05:02:16.835Z,101458.22
2018-02-20T05:03:20.218Z,101463.52
2018-02-20T05:04:23.560Z,101463.53
2018-02-20T05:05:26.884Z,101459.63
2018-02-20T05:06:30.270Z,101456.59
2018-02-20T05:07:33.810Z,101460.09
2018-02-20T05:08:37.150Z,101461.89
2018-02-20T05:09:40.486Z,101460.60
2018-02-20T05:10:43.831Z,101454.94
2018-02-20T05:11:47.205Z,101459.31
2018-02-20T05:12:50.539Z,101458.02
2018-02-20T05:13:53.949Z,101456.71
2018-02-20T05:14:57.268Z,101456.77
2018-02-20T05:16:00.690Z,101461.14
2018-02-20T05:17:04.006Z,101453.33
2018-02-20T05:18:07.457Z,101463.83
2018-02-20T05:19:10.896Z,101453.83
2018-02-20T05:20:14.264Z,101457.78
2018-02-20T05:21:17.592Z,101451.69
2018-02-20T05:22:20.926Z,101459.58
2018-02-20T05:23:26.174Z,101450.41
2018-02-20T05:24:29.528Z,101450.04
2018-02-20T05:25:32.967Z,101453.09
2018-02-20T05:26:36.277Z,101453.54
2018-02-20T05:27:39.595Z,101450.51
2018-02-20T05:28:42.982Z,101447.03
2018-02-20T05:29:46.374Z,101454.01
2018-02-20T05:30:49.714Z,101456.20
2018-02-20T05:31:53.022Z,101457.56
2018-02-20T05:32:56.337Z,101454.94
2018-02-20T05:33:59.653Z,101454.98
2018-02-20T05:35:03.104Z,101455.41
2018-02-20T05:36:06.452Z,101453.69
2018-02-20T05:37:09.868Z,101454.13
2018-02-20T05:38:13.280Z,101453.27
2018-02-20T05:39:16.653Z,101453.31
2018-02-20T05:40:19.991Z,101456.77
2018-02-20T05:41:23.406Z,101456.39
2018-02-20T05:42:26.773Z,101455.95
2018-02-20T05:43:30.112Z,101455.95
2018-02-20T05:44:33.484Z,101456.86
2018-02-20T05:45:36.843Z,101454.69
2018-02-20T05:46:40.201Z,101458.23
2018-02-20T05:47:43.527Z,101462.19
2018-02-20T05:48:46.889Z,101458.70
2018-02-20T05:49:50.219Z,101460.92
2018-02-20T05:50:53.610Z,101467.48
2018-02-20T05:51:56.981Z,101461.84
2018-02-20T05:53:00.337Z,101465.30
2018-02-20T05:54:03.721Z,101467.53
2018-02-20T05:55:07.113Z,101463.63
2018-02-20T05:56:10.482Z,101469.30
2018-02-20T05:57:13.923Z,101469.31
2018-02-20T05:58:17.264Z,101464.98
2018-02-20T05:59:20.809Z,101464.55
2018-02-20T06:00:24.197Z,101467.26
2018-02-20T06:01:27.564Z,101467.23
2018-02-20T06:02:30.871Z,101469.02
2018-02-20T06:03:34.522Z,101469.07
2018-02-20T06:04:37.868Z,101462.97
2018-02-20T06:05:41.229Z,101472.59
2018-02-20T06:06:44.561Z,101466.49
2018-02-20T06:07:48.088Z,101471.30
2018-02-20T06:08:51.423Z,101474.37
2018-02-20T06:09:54.768Z,101470.08
2018-02-20T06:10:58.086Z,101464.86
2018-02-20T06:12:01.500Z,101465.31
2018-02-20T06:13:04.843Z,101464.88
2018-02-20T06:14:08.160Z,101465.81
2018-02-20T06:15:11.536Z,101470.19
2018-02-20T06:16:14.875Z,101463.69
2018-02-20T06:17:18.268Z,101463.69
2018-02-20T06:18:21.584Z,101467.68
2018-02-20T06:19:24.928Z,101467.25
2018-02-20T06:20:28.232Z,101471.18
2018-02-20T06:21:31.600Z,101475.14
2018-02-20T06:22:34.920Z,101475.14
2018-02-20T06:23:38.272Z,101466.88
2018-02-20T06:24:41.612Z,101469.10
2018-02-20T06:25:44.998Z,101469.98
2018-02-20T06:26:48.287Z,101472.60
2018-02-20T06:27:51.712Z,101466.95
2018-02-20T06:28:55.053Z,101470.90
2018-02-20T06:29:58.375Z,101464.80
2018-02-20T06:31:01.759Z,101470.48
2018-02-20T06:32:05.131Z,101470.11
2018-02-20T06:33:08.476Z,101466.63
2018-02-20T06:34:11.830Z,101467.96
2018-02-20T06:35:15.267Z,101467.96
2018-02-20T06:36:18.568Z,101470.16
2018-02-20T06:37:21.886Z,101470.15
2018-02-20T06:38:26.128Z,101470.65
2018-02-20T06:39:29.485Z,101466.33
2018-02-20T06:40:32.973Z,101467.64
2018-02-20T06:41:36.285Z,101464.61
2018-02-20T06:42:39.680Z,101466.40
2018-02-20T06:43:43.163Z,101466.85
2018-02-20T06:44:46.492Z,101467.75
2018-02-20T06:45:49.935Z,101473.87
2018-02-20T06:46:53.461Z,101473.45
2018-02-20T06:47:56.808Z,101475.67
2018-02-20T06:49:01.097Z,101481.73
2018-02-20T06:50:04.620Z,101480.49
2018-02-20T06:51:07.991Z,101487.02
2018-02-20T06:52:11.310Z,101477.86
2018-02-20T06:53:14.699Z,101485.28
2018-02-20T06:54:18.251Z,101480.05
2018-02-20T06:55:21.664Z,101481.78
2018-02-20T06:56:25.002Z,101481.78
2018-02-20T06:57:28.337Z,101478.73
2018-02-20T06:58:31.798Z,101478.29
2018-02-20T06:59:35.166Z,101476.55
2018-02-20T07:00:38.563Z,101479.97
2018-02-20T07:01:41.949Z,101475.59
2018-02-20T07:02:45.383Z,101476.03
2018-02-20T07:03:48.674Z,101477.32
2018-02-20T07:04:52.026Z,101481.25
2018-02-20T07:05:55.358Z,101484.67
2018-02-20T07:06:58.693Z,101484.63
2018-02-20T07:08:02.147Z,101494.23
2018-02-20T07:09:05.453Z,101490.23
2018-02-20T07:10:08.914Z,101497.19
2018-02-20T07:11:12.746Z,101493.24
2018-02-20T07:12:16.141Z,101499.72
2018-02-20T07:13:19.471Z,101496.65
2018-02-20T07:14:22.794Z,101500.54
2018-02-20T07:15:26.280Z,101501.40
2018-02-20T07:16:29.631Z,101505.27
2018-02-20T07:17:33.091Z,101507.85
2018-02-20T07:18:36.437Z,101510.83
2018-02-20T07:19:39.837Z,101509.91
2018-02-20T07:20:43.175Z,101509.02
2018-02-20T07:21:46.553Z,101508.06
2018-02-20T07:22:49.875Z,101508.91
2018-02-20T07:23:53.296Z,101508.84
2018-02-20T07:24:56.633Z,101514.91
2018-02-20T07:26:00.181Z,101514.84
2018-02-20T07:27:03.488Z,101516.58
2018-02-20T07:28:07.012Z,101514.78
2018-02-20T07:29:10.360Z,101511.66
2018-02-20T07:30:15.403Z,101513.81
2018-02-20T07:31:18.777Z,101510.30
2018-02-20T07:32:22.291Z,101515.48
2018-02-20T07:33:26.576Z,101510.66
2018-02-20T07:34:35.407Z,101515.47
2018-02-20T07:35:44.215Z,101518.50
2018-02-20T07:36:47.680Z,101508.03
2018-02-20T07:37:50.992Z,101508.45
2018-02-20T07:38:54.478Z,101511.00
2018-02-20T07:39:58.387Z,101513.59
2018-02-20T07:41:01.789Z,101508.32
2018-02-20T07:42:05.156Z,101511.75
2018-02-20T07:43:08.476Z,101514.34
2018-02-20T07:44:11.805Z,101508.59
2018-02-20T07:45:15.199Z,101506.80
2018-02-20T07:46:18.516Z,101509.84
2018-02-20T07:47:21.882Z,101511.09
2018-02-20T07:48:25.253Z,101513.22
2018-02-20T07:49:28.671Z,101516.70
2018-02-20T07:50:32.781Z,101512.70
2018-02-20T07:51:36.228Z,101525.70
2018-02-20T07:52:39.742Z,101522.20
2018-02-20T07:53:43.129Z,101523.05
2018-02-20T07:54:46.509Z,101526.45
2018-02-20T07:55:49.840Z,101525.58
2018-02-20T07:56:53.225Z,101518.59
2018-02-20T07:57:56.616Z,101529.47
2018-02-20T07:59:00.021Z,101522.41
2018-02-20T08:00:03.417Z,101524.56
2018-02-20T08:01:06.835Z,101526.30
2018-02-20T08:02:10.181Z,101529.33
2018-02-20T08:03:14.372Z,101522.30
2018-02-20T08:04:17.712Z,101519.66
2018-02-20T08:05:25.000Z,101522.69
2018-02-20T08:06:28.355Z,101523.14
2018-02-20T08:07:31.759Z,101519.62
2018-02-20T08:08:35.359Z,101520.85
2018-02-20T08:09:38.705Z,101516.92
2018-02-20T08:10:42.083Z,101519.50
2018-02-20T08:11:45.536Z,101518.17
2018-02-20T08:12:48.868Z,101512.88
2018-02-20T08:13:52.834Z,101514.60
2018-02-20T08:14:56.147Z,101516.79
2018-02-20T08:15:59.572Z,101515.03
2018-02-20T08:17:02.921Z,101515.89
2018-02-20T08:18:07.292Z,101515.91
2018-02-20T08:19:12.398Z,101515.48
2018-02-20T08:20:15.745Z,101511.53
2018-02-20T08:21:19.069Z,101515.89
2018-02-20T08:22:22.387Z,101515.44
2018-02-20T08:23:25.740Z,101515.01
2018-02-20T08:24:29.100Z,101513.25
2018-02-20T08:25:32.512Z,101507.59
2018-02-20T08:26:35.848Z,101508.89
2018-02-20T08:27:39.220Z,101510.63
2018-02-20T08:28:42.602Z,101511.05
2018-02-20T08:29:45.960Z,101512.74
2018-02-20T08:30:49.329Z,101510.53
2018-02-20T08:31:53.141Z,101513.59
2018-02-20T08:32:56.503Z,101516.19
2018-02-20T08:33:59.958Z,101516.61
2018-02-20T08:35:03.452Z,101516.97
2018-02-20T08:36:06.909Z,101511.28
2018-02-20T08:37:10.215Z,101515.56
2018-02-20T08:38:13.556Z,101516.83
2018-02-20T08:39:16.954Z,101514.63
2018-02-20T08:40:20.455Z,101511.06
2018-02-20T08:41:23.760Z,101506.66
2018-02-20T08:42:27.135Z,101503.59
2018-02-20T08:43:30.552Z,101504.84
2018-02-20T08:44:33.902Z,101510.05
2018-02-20T08:45:37.403Z,101504.33
2018-02-20T08:46:40.715Z,101504.70
2018-02-20T08:47:44.209Z,101502.02
2018-02-20T08:48:47.566Z,101500.66
2018-02-20T08:49:50.982Z,101505.86
2018-02-20T08:50:54.385Z,101502.28
2018-02-20T08:51:57.708Z,101504.45
2018-02-20T08:53:01.175Z,101509.62
2018-02-20T08:54:04.483Z,101503.43
2018-02-20T08:55:08.056Z,101502.02
2018-02-20T08:56:11.418Z,101504.16
2018-02-20T08:57:14.797Z,101500.16
2018-02-20T08:58:18.360Z,101502.72
2018-02-20T08:59:21.679Z,101499.56
2018-02-20T09:00:25.070Z,101494.66
2018-02-20T09:01:28.485Z,101503.77
2018-02-20T09:02:31.857Z,101501.06
2018-02-20T09:03:35.272Z,101498.83
2018-02-20T09:04:38.584Z,101505.29
2018-02-20T09:05:42.096Z,101499.52
2018-02-20T09:06:45.452Z,101501.66
2018-02-20T09:07:49.386Z,101500.70
2018-02-20T09:08:53.164Z,101503.71
2018-02-20T09:09:56.496Z,101504.92
2018-02-20T09:10:59.816Z,101502.25
2018-02-20T09:12:03.153Z,101503.04
2018-02-20T09:13:06.552Z,101495.98
2018-02-20T09:14:09.954Z,101504.18
2018-02-20T09:15:13.311Z,101497.97
2018-02-20T09:16:16.666Z,101502.72
2018-02-20T09:17:20.007Z,101495.20
2018-02-20T09:18:23.356Z,101499.48
2018-02-20T09:19:26.938Z,101497.25
2018-02-20T09:20:30.348Z,101491.04
2018-02-20T09:21:33.848Z,101490.11
2018-02-20T09:22:37.185Z,101491.77
2018-02-20T09:23:40.592Z,101490.41
2018-02-20T09:24:43.911Z,101494.70
2018-02-20T09:25:47.264Z,101488.09
2018-02-20T09:26:50.661Z,101494.55
2018-02-20T09:27:54.014Z,101490.52
2018-02-20T09:28:57.454Z,101498.34
2018-02-20T09:30:00.775Z,101493.44
2018-02-20T09:31:04.099Z,101494.25
2018-02-20T09:32:07.488Z,101488.92
2018-02-20T09:33:10.843Z,101489.30
2018-02-20T09:34:14.172Z,101489.20
2018-02-20T09:35:17.507Z,101490.46
2018-02-20T09:36:20.810Z,101488.61
2018-02-20T09:37:24.181Z,101484.09
2018-02-20T09:38:27.501Z,101487.07
2018-02-20T09:39:30.838Z,101489.59
2018-02-20T09:40:34.174Z,101493.42
2018-02-20T09:41:37.484Z,101490.70
2018-02-20T09:42:40.887Z,101491.02
2018-02-20T09:43:44.252Z,101490.52
2018-02-20T09:44:47.633Z,101486.90
2018-02-20T09:45:50.941Z,101481.59
2018-02-20T09:46:54.863Z,101486.74
2018-02-20T09:47:58.267Z,101487.95
2018-02-20T09:49:01.701Z,101486.19
2018-02-20T09:50:05.023Z,101494.33
2018-02-20T09:51:08.332Z,101489.94
2018-02-20T09:52:11.672Z,101491.60
2018-02-20T09:53:14.977Z,101493.69
2018-02-20T09:54:18.488Z,101491.03
2018-02-20T09:55:21.828Z,101488.79
2018-02-20T09:56:25.232Z,101491.33
2018-02-20T09:57:28.561Z,101492.57
2018-02-20T09:58:31.849Z,101492.52
2018-02-20T09:59:35.700Z,101492.48
2018-02-20T10:00:39.178Z,101496.86
2018-02-20T10:01:42.497Z,101502.95
2018-02-20T10:02:45.816Z,101506.38
2018-02-20T10:03:49.139Z,101505.44
2018-02-20T10:04:52.625Z,101505.35
2018-02-20T10:05:55.974Z,101513.23
2018-02-20T10:06:59.310Z,101512.75
2018-02-20T10:08:02.723Z,101514.47
2018-02-20T10:09:06.116Z,101521.84
2018-02-20T10:10:09.469Z,101521.30
2018-02-20T10:11:12.792Z,101523.88
2018-02-20T10:12:16.102Z,101517.71
2018-02-20T10:13:19.530Z,101521.55
2018-02-20T10:14:22.918Z,101521.49
2018-02-20T10:15:26.349Z,101525.33
2018-02-20T10:16:29.705Z,101523.50
2018-02-20T10:17:33.016Z,101529.05
2018-02-20T10:18:36.409Z,101523.74
2018-02-20T10:19:39.769Z,101527.58
2018-02-20T10:20:43.625Z,101526.20
2018-02-20T10:21:48.000Z,101533.09
2018-02-20T10:22:51.324Z,101532.16
2018-02-20T10:23:54.715Z,101536.42
2018-02-20T10:24:58.043Z,101536.34
2018-02-20T10:26:04.092Z,101534.54
2018-02-20T10:27:07.536Z,101536.17
2018-02-20T10:28:10.909Z,101533.92
2018-02-20T10:29:14.268Z,101536.02
2018-02-20T10:30:17.698Z,101543.41
2018-02-20T10:31:21.906Z,101536.76
2018-02-20T10:32:25.606Z,101539.77
2018-02-20T10:33:28.969Z,101539.25
2018-02-20T10:34:32.262Z,101541.83
2018-02-20T10:35:35.581Z,101543.52
2018-02-20T10:36:39.033Z,101538.66
2018-02-20T10:37:42.586Z,101539.05
2018-02-20T10:38:45.925Z,101541.59
2018-02-20T10:39:49.270Z,101543.30
2018-02-20T10:40:52.628Z,101543.64
2018-02-20T10:41:55.981Z,101547.55
2018-02-20T10:42:59.325Z,101543.98
2018-02-20T10:44:02.639Z,101541.30
2018-02-20T10:45:06.062Z,101541.67
2018-02-20T10:46:09.416Z,101542.02
2018-02-20T10:47:12.807Z,101542.39
2018-02-20T10:48:16.241Z,101544.94
2018-02-20T10:49:19.585Z,101551.45
2018-02-20T10:50:22.966Z,101541.73
2018-02-20T10:51:26.349Z,101542.53
2018-02-20T10:52:29.778Z,101533.34
2018-02-20T10:53:33.185Z,101536.34
2018-02-20T10:54:36.594Z,101540.66
2018-02-20T10:55:39.916Z,101535.31
2018-02-20T10:56:43.248Z,101532.65
2018-02-20T10:57:46.801Z,101533.42
2018-02-20T10:58:50.116Z,101536.45
2018-02-20T10:59:53.432Z,101534.56
2018-02-20T11:00:56.915Z,101529.62
2018-02-20T11:02:00.357Z,101532.63
2018-02-20T11:03:03.719Z,101533.37
2018-02-20T11:04:07.076Z,101531.08
2018-02-20T11:05:10.503Z,101526.59
2018-02-20T11:06:13.872Z,101530.47
2018-02-20T11:07:17.259Z,101529.94
2018-02-20T11:08:20.578Z,101526.35
2018-02-20T11:09:24.108Z,101527.59
2018-02-20T11:10:27.420Z,101525.75
2018-02-20T11:11:30.933Z,101527.01
2018-02-20T11:12:34.282Z,101528.23
2018-02-20T11:13:37.659Z,101526.00
2018-02-20T11:14:41.005Z,101529.86
2018-02-20T11:15:44.572Z,101528.92
2018-02-20T11:16:47.940Z,101531.09
2018-02-20T11:17:51.409Z,101528.37
2018-02-20T11:18:54.928Z,101529.23
2018-02-20T11:19:58.245Z,101526.57
2018-02-20T11:21:01.563Z,101529.54
2018-02-20T11:22:05.025Z,101522.50
2018-02-20T11:23:08.434Z,101529.05
2018-02-20T11:24:11.810Z,101528.56
2018-02-20T11:25:15.310Z,101520.58
2018-02-20T11:26:18.653Z,101520.52
2018-02-20T11:27:21.993Z,101521.78
2018-02-20T11:28:25.347Z,101517.80
2018-02-20T11:29:28.674Z,101518.63
2018-02-20T11:30:32.009Z,101517.31
2018-02-20T11:31:35.318Z,101518.11
2018-02-20T11:32:38.654Z,101511.95
2018-02-20T11:33:41.982Z,101513.22
2018-02-20T11:34:45.351Z,101509.70
2018-02-20T11:35:48.685Z,101512.66
2018-02-20T11:36:52.005Z,101507.83
2018-02-20T11:37:55.333Z,101502.94
2018-02-20T11:38:58.846Z,101511.20
2018-02-20T11:40:02.172Z,101507.65
2018-02-20T11:41:05.488Z,101512.88
2018-02-20T11:42:08.913Z,101509.34
2018-02-20T11:43:12.289Z,101507.93
2018-02-20T11:44:15.797Z,101505.66
2018-02-20T11:45:19.132Z,101505.11
2018-02-20T11:46:22.697Z,101497.98
2018-02-20T11:47:26.067Z,101507.99
2018-02-20T11:48:29.453Z,101511.82
2018-02-20T11:49:32.791Z,101510.93
2018-02-20T11:50:36.145Z,101507.32
2018-02-20T11:51:39.463Z,101516.91
2018-02-20T11:53:52.333Z,101509.28
2018-02-20T11:54:55.651Z,101509.52
2018-02-20T11:55:59.036Z,101508.85
2018-02-20T11:57:02.341Z,101507.38
2018-02-20T11:58:05.652Z,101504.22
2018-02-20T11:59:08.999Z,101509.37
2018-02-20T12:00:12.369Z,101513.19
2018-02-20T12:01:15.738Z,101506.95
2018-02-20T12:02:19.211Z,101510.80
2018-02-20T12:03:22.556Z,101509.36
2018-02-20T12:04:25.897Z,101511.02
2018-02-20T12:05:29.229Z,101506.91
2018-02-20T12:06:32.624Z,101505.40